CCA9691 ZBAA-ZHCC
Flight info
| Callsign | CCA9691 |
|---|---|
| Flight time | 1h 6m |
| Altitude | 30100 |
| Route | RUSD9Z/36R RUSDO W45 SQ B208 NOPIN NOP9U |
| Aircraft | B77W/H-SDE1E2E3FGHIJ2J3J4J5M1RWXY/LB1D1 |
Departure
| Time | 2026-05-07 11:36 |
|---|---|
| Airport | Beijing Capital International Airport (ZBAA) |
Arrival
| Time | 2026-05-07 12:42 |
|---|---|
| Airport | Zhengzhou Xinzheng International Airport (ZHCC) |
| Time | Latitude | Longitude | Altitude | Speed | Heading |
|---|---|---|---|---|---|
| 2026-05-07 11:04 | 40.06061 | 116.61326 | 128 ft | 0 kts | 83° |
| 2026-05-07 11:22 | 40.06060 | 116.61321 | 128 ft | 3 kts | 83° |
| 2026-05-07 11:23 | 40.06058 | 116.61287 | 126 ft | 4 kts | 82° |
| 2026-05-07 11:23 | 40.06052 | 116.61254 | 123 ft | 4 kts | 66° |
| 2026-05-07 11:23 | 40.06043 | 116.61234 | 123 ft | 4 kts | 27° |
| 2026-05-07 11:23 | 40.06034 | 116.61230 | 123 ft | 3 kts | 353° |
| 2026-05-07 11:24 | 40.06008 | 116.61234 | 124 ft | 4 kts | 353° |
| 2026-05-07 11:24 | 40.05999 | 116.61236 | 123 ft | 0 kts | 353° |
| 2026-05-07 11:27 | 40.06000 | 116.61236 | 123 ft | 0 kts | 353° |
| 2026-05-07 11:28 | 40.06022 | 116.61232 | 124 ft | 14 kts | 353° |
| 2026-05-07 11:28 | 40.06187 | 116.61205 | 126 ft | 24 kts | 353° |
| 2026-05-07 11:28 | 40.06225 | 116.61199 | 126 ft | 2 kts | 353° |
| 2026-05-07 11:28 | 40.06248 | 116.61196 | 125 ft | 8 kts | 353° |
| 2026-05-07 11:29 | 40.06332 | 116.61171 | 123 ft | 7 kts | 321° |
| 2026-05-07 11:29 | 40.06341 | 116.61062 | 126 ft | 21 kts | 261° |
| 2026-05-07 11:29 | 40.06317 | 116.60789 | 128 ft | 33 kts | 263° |
| 2026-05-07 11:29 | 40.06309 | 116.60696 | 126 ft | 12 kts | 263° |
| 2026-05-07 11:30 | 40.06289 | 116.60471 | 125 ft | 37 kts | 262° |
| 2026-05-07 11:30 | 40.06278 | 116.60361 | 127 ft | 0 kts | 263° |
| 2026-05-07 11:30 | 40.06276 | 116.60347 | 125 ft | 3 kts | 263° |
| 2026-05-07 11:30 | 40.06275 | 116.60333 | 127 ft | 1 kts | 263° |
| 2026-05-07 11:31 | 40.06257 | 116.60283 | 123 ft | 16 kts | 220° |
| 2026-05-07 11:31 | 40.06232 | 116.60269 | 124 ft | 2 kts | 197° |
| 2026-05-07 11:31 | 40.06168 | 116.60193 | 126 ft | 18 kts | 228° |
| 2026-05-07 11:31 | 40.06129 | 116.60171 | 126 ft | 13 kts | 193° |
| 2026-05-07 11:32 | 40.05660 | 116.60232 | 125 ft | 41 kts | 173° |
| 2026-05-07 11:32 | 40.05579 | 116.60237 | 126 ft | 7 kts | 195° |
| 2026-05-07 11:32 | 40.05548 | 116.60193 | 124 ft | 0 kts | 252° |
| 2026-05-07 11:33 | 40.05546 | 116.60182 | 124 ft | 0 kts | 258° |
| 2026-05-07 11:35 | 40.05555 | 116.60085 | 125 ft | 24 kts | 296° |
| 2026-05-07 11:35 | 40.05701 | 116.59991 | 128 ft | 25 kts | 353° |
| 2026-05-07 11:36 | 40.05993 | 116.59944 | 127 ft | 83 kts | 353° |
| 2026-05-07 11:36 | 40.06891 | 116.59787 | 133 ft | 171 kts | 350° |
| 2026-05-07 11:36 | 40.08143 | 116.59584 | 976 ft | 179 kts | 353° |
| 2026-05-07 11:36 | 40.09367 | 116.59405 | 2219 ft | 179 kts | 354° |
| 2026-05-07 11:37 | 40.10646 | 116.59215 | 3007 ft | 196 kts | 353° |
| 2026-05-07 11:37 | 40.12110 | 116.58988 | 3475 ft | 230 kts | 353° |
| 2026-05-07 11:37 | 40.13790 | 116.58728 | 4171 ft | 250 kts | 352° |
| 2026-05-07 11:37 | 40.15550 | 116.58452 | 4748 ft | 258 kts | 352° |
| 2026-05-07 11:38 | 40.17343 | 116.58167 | 4895 ft | 261 kts | 352° |
| 2026-05-07 11:38 | 40.19143 | 116.57877 | 4902 ft | 261 kts | 352° |
| 2026-05-07 11:38 | 40.20946 | 116.57587 | 4932 ft | 262 kts | 352° |
| 2026-05-07 11:38 | 40.22753 | 116.57297 | 5276 ft | 261 kts | 352° |
| 2026-05-07 11:39 | 40.24522 | 116.56928 | 6005 ft | 254 kts | 342° |
| 2026-05-07 11:39 | 40.26050 | 116.55762 | 7010 ft | 256 kts | 319° |
| 2026-05-07 11:39 | 40.27386 | 116.54181 | 7959 ft | 263 kts | 319° |
| 2026-05-07 11:39 | 40.28766 | 116.52601 | 9146 ft | 264 kts | 320° |
| 2026-05-07 11:40 | 40.30148 | 116.51013 | 10304 ft | 265 kts | 319° |
| 2026-05-07 11:40 | 40.31318 | 116.49109 | 10978 ft | 283 kts | 296° |
| 2026-05-07 11:40 | 40.31712 | 116.46425 | 11275 ft | 319 kts | 274° |
| 2026-05-07 11:40 | 40.31685 | 116.43369 | 11521 ft | 352 kts | 272° |
| 2026-05-07 11:41 | 40.31677 | 116.40094 | 12531 ft | 363 kts | 272° |
| 2026-05-07 11:41 | 40.31671 | 116.36762 | 13969 ft | 367 kts | 272° |
| 2026-05-07 11:41 | 40.31663 | 116.33413 | 15304 ft | 369 kts | 273° |
| 2026-05-07 11:41 | 40.31658 | 116.30190 | 16502 ft | 374 kts | 273° |
| 2026-05-07 11:42 | 40.31567 | 116.26774 | 17491 ft | 380 kts | 266° |
| 2026-05-07 11:42 | 40.30761 | 116.23396 | 18447 ft | 400 kts | 248° |
| 2026-05-07 11:42 | 40.29198 | 116.20328 | 19401 ft | 411 kts | 236° |
| 2026-05-07 11:42 | 40.27284 | 116.17531 | 19808 ft | 413 kts | 232° |
| 2026-05-07 11:43 | 40.25327 | 116.14758 | 19797 ft | 415 kts | 232° |
| 2026-05-07 11:43 | 40.23364 | 116.11989 | 19799 ft | 417 kts | 232° |
| 2026-05-07 11:43 | 40.21395 | 116.09204 | 19801 ft | 417 kts | 232° |
| 2026-05-07 11:43 | 40.19428 | 116.06413 | 19799 ft | 417 kts | 232° |
| 2026-05-07 11:44 | 40.17467 | 116.03619 | 19803 ft | 417 kts | 232° |
| 2026-05-07 11:44 | 40.15511 | 116.00823 | 19805 ft | 418 kts | 233° |
| 2026-05-07 11:44 | 40.13533 | 115.97990 | 20613 ft | 424 kts | 233° |
| 2026-05-07 11:44 | 40.11545 | 115.95143 | 21736 ft | 425 kts | 233° |
| 2026-05-07 11:45 | 40.09543 | 115.92283 | 22781 ft | 429 kts | 233° |
| 2026-05-07 11:45 | 40.07520 | 115.89382 | 23720 ft | 435 kts | 233° |
| 2026-05-07 11:45 | 40.05467 | 115.86439 | 24501 ft | 441 kts | 233° |
| 2026-05-07 11:45 | 40.03390 | 115.83472 | 25336 ft | 444 kts | 233° |
| 2026-05-07 11:46 | 40.01298 | 115.80493 | 26155 ft | 447 kts | 234° |
| 2026-05-07 11:46 | 39.99191 | 115.77489 | 26907 ft | 451 kts | 234° |
| 2026-05-07 11:46 | 39.97062 | 115.74464 | 27603 ft | 454 kts | 234° |
| 2026-05-07 11:46 | 39.94920 | 115.71424 | 27708 ft | 456 kts | 234° |
| 2026-05-07 11:47 | 39.92775 | 115.68382 | 27723 ft | 456 kts | 234° |
| 2026-05-07 11:47 | 39.90627 | 115.65335 | 27710 ft | 457 kts | 234° |
| 2026-05-07 11:47 | 39.88478 | 115.62291 | 27711 ft | 457 kts | 234° |
| 2026-05-07 11:47 | 39.86327 | 115.59246 | 27713 ft | 457 kts | 234° |
| 2026-05-07 11:48 | 39.84179 | 115.56205 | 27722 ft | 457 kts | 234° |
| 2026-05-07 11:48 | 39.82026 | 115.53160 | 27721 ft | 457 kts | 234° |
| 2026-05-07 11:48 | 39.79872 | 115.50117 | 27719 ft | 459 kts | 234° |
| 2026-05-07 11:48 | 39.77718 | 115.46967 | 27724 ft | 472 kts | 237° |
| 2026-05-07 11:49 | 39.75764 | 115.43520 | 27716 ft | 474 kts | 243° |
| 2026-05-07 11:49 | 39.74067 | 115.39862 | 27713 ft | 472 kts | 248° |
| 2026-05-07 11:49 | 39.72588 | 115.36059 | 27737 ft | 471 kts | 249° |
| 2026-05-07 11:49 | 39.71109 | 115.32258 | 27706 ft | 472 kts | 249° |
| 2026-05-07 11:50 | 39.69639 | 115.28505 | 27736 ft | 471 kts | 249° |
| 2026-05-07 11:50 | 39.68140 | 115.24685 | 27719 ft | 471 kts | 249° |
| 2026-05-07 11:50 | 39.66644 | 115.20904 | 27726 ft | 471 kts | 249° |
| 2026-05-07 11:50 | 39.65140 | 115.17121 | 27728 ft | 472 kts | 249° |
| 2026-05-07 11:51 | 39.63632 | 115.13339 | 27727 ft | 472 kts | 249° |
| 2026-05-07 11:51 | 39.62124 | 115.09556 | 27724 ft | 472 kts | 249° |
| 2026-05-07 11:51 | 39.60616 | 115.05776 | 27724 ft | 472 kts | 249° |
| 2026-05-07 11:51 | 39.59106 | 115.01996 | 27705 ft | 472 kts | 249° |
| 2026-05-07 11:52 | 39.57598 | 114.98226 | 27727 ft | 472 kts | 249° |
| 2026-05-07 11:52 | 39.56083 | 114.94446 | 27735 ft | 472 kts | 249° |
| 2026-05-07 11:52 | 39.54572 | 114.90677 | 27749 ft | 472 kts | 249° |
| 2026-05-07 11:52 | 39.53061 | 114.86911 | 27726 ft | 471 kts | 249° |
| 2026-05-07 11:53 | 39.51548 | 114.83144 | 27755 ft | 471 kts | 250° |
| 2026-05-07 11:53 | 39.50033 | 114.79374 | 27733 ft | 472 kts | 250° |
| 2026-05-07 11:53 | 39.48537 | 114.75655 | 27726 ft | 472 kts | 250° |
| 2026-05-07 11:53 | 39.47018 | 114.71892 | 27748 ft | 472 kts | 250° |
| 2026-05-07 11:54 | 39.45497 | 114.68129 | 27741 ft | 472 kts | 250° |
| 2026-05-07 11:54 | 39.43954 | 114.64314 | 27735 ft | 472 kts | 250° |
| 2026-05-07 11:54 | 39.42453 | 114.60603 | 27737 ft | 472 kts | 250° |
| 2026-05-07 11:54 | 39.40929 | 114.56837 | 27724 ft | 473 kts | 250° |
| 2026-05-07 11:55 | 39.39404 | 114.53074 | 27740 ft | 473 kts | 250° |
| 2026-05-07 11:55 | 39.37870 | 114.49307 | 27734 ft | 474 kts | 250° |
| 2026-05-07 11:55 | 39.36322 | 114.45537 | 27740 ft | 475 kts | 250° |
| 2026-05-07 11:55 | 39.34769 | 114.41773 | 27744 ft | 475 kts | 250° |
| 2026-05-07 11:56 | 39.33218 | 114.38013 | 27740 ft | 475 kts | 250° |
| 2026-05-07 11:56 | 39.31667 | 114.34248 | 27741 ft | 476 kts | 250° |
| 2026-05-07 11:56 | 39.30112 | 114.30469 | 27735 ft | 476 kts | 250° |
| 2026-05-07 11:56 | 39.28562 | 114.26696 | 27748 ft | 476 kts | 250° |
| 2026-05-07 11:57 | 39.27015 | 114.22927 | 27738 ft | 475 kts | 250° |
| 2026-05-07 11:57 | 39.25424 | 114.19200 | 27729 ft | 475 kts | 246° |
| 2026-05-07 11:57 | 39.23257 | 114.15850 | 27736 ft | 502 kts | 231° |
| 2026-05-07 11:57 | 39.20375 | 114.13156 | 27757 ft | 521 kts | 218° |
| 2026-05-07 11:58 | 39.16982 | 114.11331 | 27745 ft | 535 kts | 203° |
| 2026-05-07 11:58 | 39.13363 | 114.10165 | 27759 ft | 538 kts | 201° |
| 2026-05-07 11:58 | 39.09734 | 114.08983 | 27748 ft | 538 kts | 202° |
| 2026-05-07 11:58 | 39.06123 | 114.07759 | 27757 ft | 536 kts | 202° |
| 2026-05-07 11:59 | 39.02525 | 114.06505 | 27745 ft | 536 kts | 203° |
| 2026-05-07 11:59 | 38.98930 | 114.05228 | 27749 ft | 536 kts | 203° |
| 2026-05-07 11:59 | 38.95341 | 114.03945 | 27748 ft | 535 kts | 204° |
| 2026-05-07 11:59 | 38.91754 | 114.02663 | 27738 ft | 535 kts | 204° |
| 2026-05-07 12:00 | 38.88163 | 114.01383 | 27753 ft | 535 kts | 204° |
| 2026-05-07 12:00 | 38.84578 | 114.00108 | 27758 ft | 534 kts | 204° |
| 2026-05-07 12:00 | 38.80998 | 113.98841 | 27748 ft | 533 kts | 204° |
| 2026-05-07 12:00 | 38.77424 | 113.97578 | 27742 ft | 533 kts | 204° |
| 2026-05-07 12:01 | 38.73856 | 113.96317 | 27741 ft | 531 kts | 204° |
| 2026-05-07 12:01 | 38.70297 | 113.95058 | 27754 ft | 530 kts | 204° |
| 2026-05-07 12:01 | 38.66743 | 113.93804 | 27753 ft | 530 kts | 204° |
| 2026-05-07 12:01 | 38.63192 | 113.92554 | 27739 ft | 529 kts | 204° |
| 2026-05-07 12:02 | 38.59653 | 113.91315 | 27727 ft | 526 kts | 204° |
| 2026-05-07 12:02 | 38.56126 | 113.90084 | 27742 ft | 525 kts | 204° |
| 2026-05-07 12:02 | 38.52604 | 113.88854 | 27757 ft | 525 kts | 204° |
| 2026-05-07 12:02 | 38.49075 | 113.87618 | 27759 ft | 526 kts | 204° |
| 2026-05-07 12:03 | 38.45547 | 113.86384 | 27727 ft | 525 kts | 204° |
| 2026-05-07 12:03 | 38.42037 | 113.85162 | 27740 ft | 522 kts | 204° |
| 2026-05-07 12:03 | 38.38530 | 113.83941 | 27761 ft | 523 kts | 204° |
| 2026-05-07 12:03 | 38.35017 | 113.82719 | 27742 ft | 523 kts | 204° |
| 2026-05-07 12:04 | 38.31508 | 113.81500 | 27735 ft | 523 kts | 204° |
| 2026-05-07 12:04 | 38.27996 | 113.80284 | 27747 ft | 523 kts | 204° |
| 2026-05-07 12:04 | 38.24485 | 113.79071 | 27745 ft | 523 kts | 204° |
| 2026-05-07 12:04 | 38.20972 | 113.77859 | 27759 ft | 524 kts | 205° |
| 2026-05-07 12:05 | 38.17454 | 113.76647 | 27749 ft | 524 kts | 204° |
| 2026-05-07 12:05 | 38.13938 | 113.75439 | 27742 ft | 523 kts | 205° |
| 2026-05-07 12:05 | 38.10476 | 113.74247 | 27750 ft | 522 kts | 205° |
| 2026-05-07 12:05 | 38.06970 | 113.73041 | 27754 ft | 522 kts | 205° |
| 2026-05-07 12:06 | 38.03464 | 113.71835 | 27749 ft | 522 kts | 205° |
| 2026-05-07 12:06 | 37.99964 | 113.70631 | 27762 ft | 521 kts | 205° |
| 2026-05-07 12:06 | 37.96463 | 113.69430 | 27754 ft | 521 kts | 205° |
| 2026-05-07 12:06 | 37.92959 | 113.68229 | 27755 ft | 521 kts | 205° |
| 2026-05-07 12:07 | 37.89460 | 113.67031 | 27763 ft | 521 kts | 205° |
| 2026-05-07 12:07 | 37.85962 | 113.65835 | 27754 ft | 521 kts | 205° |
| 2026-05-07 12:07 | 37.82470 | 113.64642 | 27769 ft | 520 kts | 205° |
| 2026-05-07 12:07 | 37.78972 | 113.63449 | 27769 ft | 520 kts | 205° |
| 2026-05-07 12:08 | 37.75476 | 113.62257 | 27770 ft | 520 kts | 205° |
| 2026-05-07 12:08 | 37.71986 | 113.61069 | 27766 ft | 520 kts | 205° |
| 2026-05-07 12:08 | 37.68493 | 113.59881 | 27775 ft | 520 kts | 205° |
| 2026-05-07 12:08 | 37.64999 | 113.58695 | 27772 ft | 520 kts | 205° |
| 2026-05-07 12:09 | 37.61510 | 113.57510 | 27772 ft | 520 kts | 205° |
| 2026-05-07 12:09 | 37.58018 | 113.56323 | 27775 ft | 519 kts | 205° |
| 2026-05-07 12:09 | 37.54528 | 113.55140 | 27779 ft | 519 kts | 204° |
| 2026-05-07 12:09 | 37.52172 | 113.54341 | 27784 ft | 519 kts | 204° |
| 2026-05-07 12:10 | 37.47551 | 113.52777 | 27783 ft | 519 kts | 204° |
| 2026-05-07 12:10 | 37.45194 | 113.51981 | 27787 ft | 519 kts | 204° |
| 2026-05-07 12:10 | 37.40578 | 113.50423 | 27788 ft | 518 kts | 204° |
| 2026-05-07 12:10 | 37.38222 | 113.49629 | 27786 ft | 518 kts | 204° |
| 2026-05-07 12:11 | 37.34743 | 113.48455 | 27785 ft | 517 kts | 204° |
| 2026-05-07 12:11 | 37.31271 | 113.47287 | 27785 ft | 516 kts | 204° |
| 2026-05-07 12:11 | 37.27806 | 113.46122 | 27788 ft | 516 kts | 204° |
| 2026-05-07 12:11 | 37.24336 | 113.44956 | 27804 ft | 516 kts | 204° |
| 2026-05-07 12:12 | 37.20875 | 113.43793 | 27790 ft | 515 kts | 204° |
| 2026-05-07 12:12 | 37.17411 | 113.42631 | 27789 ft | 515 kts | 204° |
| 2026-05-07 12:12 | 37.13952 | 113.41471 | 27795 ft | 515 kts | 204° |
| 2026-05-07 12:12 | 37.10487 | 113.40311 | 27793 ft | 515 kts | 204° |
| 2026-05-07 12:13 | 37.07028 | 113.39153 | 27800 ft | 515 kts | 204° |
| 2026-05-07 12:13 | 37.03568 | 113.37996 | 27793 ft | 514 kts | 204° |
| 2026-05-07 12:13 | 37.00111 | 113.36842 | 27793 ft | 514 kts | 204° |
| 2026-05-07 12:13 | 36.96656 | 113.35689 | 27796 ft | 514 kts | 203° |
| 2026-05-07 12:14 | 36.93199 | 113.34538 | 27790 ft | 514 kts | 203° |
| 2026-05-07 12:14 | 36.89793 | 113.33403 | 27789 ft | 513 kts | 203° |
| 2026-05-07 12:14 | 36.86345 | 113.32255 | 27787 ft | 513 kts | 203° |
| 2026-05-07 12:14 | 36.82895 | 113.31109 | 27804 ft | 513 kts | 203° |
| 2026-05-07 12:15 | 36.79449 | 113.29967 | 27795 ft | 512 kts | 203° |
| 2026-05-07 12:15 | 36.76003 | 113.28825 | 27788 ft | 512 kts | 203° |
| 2026-05-07 12:15 | 36.72560 | 113.27685 | 27796 ft | 512 kts | 203° |
| 2026-05-07 12:15 | 36.69125 | 113.26547 | 27782 ft | 511 kts | 203° |
| 2026-05-07 12:16 | 36.65685 | 113.25408 | 27783 ft | 511 kts | 203° |
| 2026-05-07 12:16 | 36.62252 | 113.24273 | 27786 ft | 511 kts | 203° |
| 2026-05-07 12:16 | 36.58821 | 113.23140 | 27788 ft | 510 kts | 202° |
| 2026-05-07 12:16 | 36.55392 | 113.22008 | 27782 ft | 510 kts | 202° |
| 2026-05-07 12:17 | 36.51969 | 113.20881 | 27781 ft | 507 kts | 202° |
| 2026-05-07 12:17 | 36.48560 | 113.19759 | 27782 ft | 507 kts | 202° |
| 2026-05-07 12:17 | 36.45146 | 113.18634 | 27791 ft | 508 kts | 202° |
| 2026-05-07 12:17 | 36.41724 | 113.17508 | 27788 ft | 509 kts | 202° |
| 2026-05-07 12:18 | 36.38295 | 113.16382 | 27785 ft | 509 kts | 202° |
| 2026-05-07 12:18 | 36.34865 | 113.15258 | 27780 ft | 510 kts | 202° |
| 2026-05-07 12:18 | 36.31439 | 113.14135 | 27776 ft | 510 kts | 202° |
| 2026-05-07 12:18 | 36.27998 | 113.13115 | 27776 ft | 512 kts | 197° |
| 2026-05-07 12:19 | 36.24392 | 113.12785 | 27779 ft | 527 kts | 186° |
| 2026-05-07 12:19 | 36.20710 | 113.13266 | 27789 ft | 538 kts | 176° |
| 2026-05-07 12:19 | 36.17089 | 113.14529 | 27774 ft | 543 kts | 166° |
| 2026-05-07 12:19 | 36.13558 | 113.16222 | 27796 ft | 546 kts | 165° |
| 2026-05-07 12:20 | 36.10008 | 113.17908 | 27780 ft | 546 kts | 165° |
| 2026-05-07 12:20 | 36.06458 | 113.19551 | 27792 ft | 545 kts | 166° |
| 2026-05-07 12:20 | 36.02964 | 113.21139 | 27769 ft | 523 kts | 166° |
| 2026-05-07 12:20 | 35.99574 | 113.22659 | 27757 ft | 515 kts | 167° |
| 2026-05-07 12:21 | 35.96211 | 113.24149 | 27761 ft | 512 kts | 167° |
| 2026-05-07 12:21 | 35.92866 | 113.25627 | 27717 ft | 510 kts | 167° |
| 2026-05-07 12:21 | 35.89539 | 113.27103 | 27440 ft | 506 kts | 167° |
| 2026-05-07 12:21 | 35.86239 | 113.28571 | 27106 ft | 501 kts | 166° |
| 2026-05-07 12:22 | 35.82970 | 113.30027 | 26778 ft | 499 kts | 166° |
| 2026-05-07 12:22 | 35.79717 | 113.31485 | 26457 ft | 496 kts | 166° |
| 2026-05-07 12:22 | 35.76483 | 113.32941 | 26152 ft | 493 kts | 166° |
| 2026-05-07 12:22 | 35.73267 | 113.34389 | 25836 ft | 491 kts | 166° |
| 2026-05-07 12:23 | 35.70047 | 113.35835 | 25764 ft | 494 kts | 166° |
| 2026-05-07 12:23 | 35.66806 | 113.37286 | 25808 ft | 498 kts | 166° |
| 2026-05-07 12:23 | 35.63553 | 113.38743 | 25790 ft | 497 kts | 166° |
| 2026-05-07 12:23 | 35.60314 | 113.40192 | 25787 ft | 494 kts | 166° |
| 2026-05-07 12:24 | 35.57081 | 113.41621 | 25794 ft | 493 kts | 166° |
| 2026-05-07 12:24 | 35.53852 | 113.43039 | 25560 ft | 494 kts | 166° |
| 2026-05-07 12:24 | 35.50595 | 113.44461 | 24738 ft | 496 kts | 166° |
| 2026-05-07 12:24 | 35.47359 | 113.45886 | 24025 ft | 492 kts | 165° |
| 2026-05-07 12:25 | 35.44149 | 113.47300 | 23168 ft | 488 kts | 165° |
| 2026-05-07 12:25 | 35.40976 | 113.48711 | 22393 ft | 482 kts | 164° |
| 2026-05-07 12:25 | 35.37851 | 113.50119 | 21659 ft | 476 kts | 163° |
| 2026-05-07 12:25 | 35.34760 | 113.51516 | 20949 ft | 470 kts | 163° |
| 2026-05-07 12:26 | 35.31706 | 113.52893 | 20243 ft | 465 kts | 162° |
| 2026-05-07 12:26 | 35.28682 | 113.54254 | 19564 ft | 461 kts | 162° |
| 2026-05-07 12:26 | 35.25682 | 113.55601 | 18875 ft | 458 kts | 161° |
| 2026-05-07 12:26 | 35.22695 | 113.56940 | 18117 ft | 456 kts | 161° |
| 2026-05-07 12:27 | 35.19729 | 113.58269 | 17355 ft | 452 kts | 161° |
| 2026-05-07 12:27 | 35.16789 | 113.59587 | 16644 ft | 448 kts | 160° |
| 2026-05-07 12:27 | 35.13880 | 113.60889 | 15952 ft | 443 kts | 160° |
| 2026-05-07 12:27 | 35.10998 | 113.62177 | 15274 ft | 439 kts | 160° |
| 2026-05-07 12:28 | 35.08143 | 113.63449 | 14591 ft | 435 kts | 160° |
| 2026-05-07 12:28 | 35.05304 | 113.64691 | 13901 ft | 432 kts | 160° |
| 2026-05-07 12:28 | 35.02495 | 113.65909 | 13264 ft | 425 kts | 160° |
| 2026-05-07 12:28 | 34.99720 | 113.67110 | 12579 ft | 420 kts | 160° |
| 2026-05-07 12:29 | 34.96979 | 113.68299 | 11913 ft | 416 kts | 160° |
| 2026-05-07 12:29 | 34.94273 | 113.69474 | 11248 ft | 412 kts | 160° |
| 2026-05-07 12:29 | 34.91656 | 113.70610 | 10997 ft | 397 kts | 160° |
| 2026-05-07 12:29 | 34.89096 | 113.71721 | 10770 ft | 384 kts | 160° |
| 2026-05-07 12:30 | 34.86633 | 113.72724 | 10581 ft | 360 kts | 167° |
| 2026-05-07 12:30 | 34.84221 | 113.72878 | 10316 ft | 337 kts | 191° |
| 2026-05-07 12:30 | 34.81972 | 113.72497 | 10159 ft | 321 kts | 188° |
| 2026-05-07 12:30 | 34.79743 | 113.72296 | 9820 ft | 319 kts | 186° |
| 2026-05-07 12:31 | 34.77531 | 113.72133 | 9505 ft | 316 kts | 186° |
| 2026-05-07 12:31 | 34.75372 | 113.71958 | 9360 ft | 306 kts | 186° |
| 2026-05-07 12:31 | 34.73291 | 113.71750 | 9221 ft | 291 kts | 192° |
| 2026-05-07 12:31 | 34.71501 | 113.70895 | 9120 ft | 268 kts | 223° |
| 2026-05-07 12:32 | 34.70334 | 113.69273 | 9027 ft | 247 kts | 247° |
| 2026-05-07 12:32 | 34.69747 | 113.67354 | 8707 ft | 239 kts | 264° |
| 2026-05-07 12:32 | 34.69557 | 113.65371 | 8419 ft | 234 kts | 276° |
| 2026-05-07 12:32 | 34.69851 | 113.63496 | 8116 ft | 222 kts | 293° |
| 2026-05-07 12:33 | 34.70981 | 113.60035 | 7574 ft | 220 kts | 295° |
| 2026-05-07 12:33 | 34.71556 | 113.58312 | 7293 ft | 219 kts | 294° |
| 2026-05-07 12:33 | 34.71853 | 113.56526 | 6985 ft | 221 kts | 266° |
| 2026-05-07 12:34 | 34.71240 | 113.54817 | 6736 ft | 227 kts | 231° |
| 2026-05-07 12:34 | 34.69946 | 113.53736 | 6477 ft | 232 kts | 207° |
| 2026-05-07 12:34 | 34.68447 | 113.52943 | 6258 ft | 237 kts | 206° |
| 2026-05-07 12:34 | 34.66907 | 113.52270 | 5907 ft | 236 kts | 190° |
| 2026-05-07 12:35 | 34.65303 | 113.52540 | 5619 ft | 235 kts | 154° |
| 2026-05-07 12:35 | 34.64159 | 113.53799 | 5500 ft | 213 kts | 119° |
| 2026-05-07 12:35 | 34.63630 | 113.55376 | 5307 ft | 192 kts | 108° |
| 2026-05-07 12:35 | 34.63162 | 113.56826 | 4958 ft | 178 kts | 110° |
| 2026-05-07 12:36 | 34.62711 | 113.58169 | 4623 ft | 167 kts | 110° |
| 2026-05-07 12:36 | 34.62281 | 113.59445 | 4250 ft | 160 kts | 109° |
| 2026-05-07 12:36 | 34.61866 | 113.60682 | 4062 ft | 156 kts | 110° |
| 2026-05-07 12:36 | 34.61456 | 113.61898 | 4008 ft | 155 kts | 110° |
| 2026-05-07 12:37 | 34.61051 | 113.63097 | 4009 ft | 155 kts | 110° |
| 2026-05-07 12:37 | 34.60640 | 113.64314 | 3901 ft | 156 kts | 110° |
| 2026-05-07 12:37 | 34.60231 | 113.65524 | 3735 ft | 153 kts | 110° |
| 2026-05-07 12:37 | 34.59836 | 113.66692 | 3526 ft | 147 kts | 110° |
| 2026-05-07 12:38 | 34.59452 | 113.67823 | 3332 ft | 144 kts | 110° |
| 2026-05-07 12:38 | 34.59076 | 113.68936 | 3136 ft | 141 kts | 110° |
| 2026-05-07 12:38 | 34.58703 | 113.70036 | 2961 ft | 141 kts | 110° |
| 2026-05-07 12:38 | 34.58338 | 113.71116 | 2771 ft | 136 kts | 109° |
| 2026-05-07 12:39 | 34.57985 | 113.72158 | 2596 ft | 132 kts | 109° |
| 2026-05-07 12:39 | 34.57641 | 113.73176 | 2423 ft | 129 kts | 109° |
| 2026-05-07 12:39 | 34.57299 | 113.74186 | 2266 ft | 129 kts | 109° |
| 2026-05-07 12:39 | 34.56959 | 113.75191 | 2112 ft | 128 kts | 109° |
| 2026-05-07 12:40 | 34.56621 | 113.76190 | 1912 ft | 127 kts | 109° |
| 2026-05-07 12:40 | 34.56285 | 113.77182 | 1739 ft | 127 kts | 109° |
| 2026-05-07 12:40 | 34.55947 | 113.78179 | 1569 ft | 128 kts | 108° |
| 2026-05-07 12:40 | 34.55613 | 113.79176 | 1430 ft | 127 kts | 109° |
| 2026-05-07 12:41 | 34.55269 | 113.80183 | 1282 ft | 131 kts | 109° |
| 2026-05-07 12:41 | 34.54934 | 113.81206 | 1032 ft | 130 kts | 110° |
| 2026-05-07 12:41 | 34.54583 | 113.82229 | 880 ft | 132 kts | 110° |
| 2026-05-07 12:41 | 34.54223 | 113.83268 | 681 ft | 134 kts | 111° |
| 2026-05-07 12:42 | 34.53873 | 113.84293 | 514 ft | 132 kts | 111° |
| 2026-05-07 12:42 | 34.53557 | 113.85231 | 505 ft | 104 kts | 112° |
| 2026-05-07 12:42 | 34.53333 | 113.85869 | 505 ft | 49 kts | 118° |
| 2026-05-07 12:42 | 34.53234 | 113.85971 | 506 ft | 0 kts | 143° |
| 2026-05-07 12:43 | 34.53230 | 113.85975 | 506 ft | 1 kts | 143° |
| 2026-05-07 12:43 | 34.53218 | 113.85985 | 506 ft | 3 kts | 144° |
| 2026-05-07 12:43 | 34.53199 | 113.86002 | 506 ft | 4 kts | 144° |
| 2026-05-07 12:43 | 34.53165 | 113.86017 | 507 ft | 9 kts | 179° |
| 2026-05-07 12:44 | 34.53115 | 113.85945 | 507 ft | 13 kts | 278° |
| 2026-05-07 12:44 | 34.53183 | 113.85768 | 507 ft | 37 kts | 292° |
| 2026-05-07 12:44 | 34.53314 | 113.85370 | 507 ft | 54 kts | 292° |
| 2026-05-07 12:44 | 34.53409 | 113.85086 | 507 ft | 35 kts | 294° |
| 2026-05-07 12:45 | 34.53454 | 113.84882 | 507 ft | 13 kts | 224° |
| 2026-05-07 12:45 | 34.53326 | 113.84810 | 506 ft | 4 kts | 202° |
| 2026-05-07 12:45 | 34.53322 | 113.84808 | 506 ft | 8 kts | 202° |
| 2026-05-07 12:45 | 34.53230 | 113.84784 | 506 ft | 11 kts | 159° |
| 2026-05-07 12:46 | 34.53218 | 113.84798 | 506 ft | 4 kts | 113° |
| 2026-05-07 12:46 | 34.53222 | 113.84768 | 506 ft | 7 kts | 124° |
| 2026-05-07 12:46 | 34.53208 | 113.84805 | 506 ft | 0 kts | 109° |
| 2026-05-07 12:46 | 34.53204 | 113.84819 | 506 ft | 3 kts | 110° |
| 2026-05-07 12:47 | 34.53197 | 113.84842 | 506 ft | 3 kts | 109° |
| 2026-05-07 12:47 | 34.53193 | 113.84856 | 506 ft | 1 kts | 109° |
| 2026-05-07 12:47 | 34.53192 | 113.84860 | 506 ft | 0 kts | 109° |